Time;durP1;ratioP1;P1;durP2;ratioP2;P2;SDS_P1;SDS_P2;PMS_P1;PMS_P2;Temp;Humidity;BMP_temperature;BMP_pressure;BME280_temperature;BME280_humidity;BME280_pressure;Samples;Min_cycle;Max_cycle;Signal;HPM_P1;HPM_P2
2023/08/30 00:02:16;;;;;;;20.50;18.30;;;;;;;19.19;96.99;99067.20;131202;1247;107523;-76
2023/08/30 00:05:21;;;;;;;20.20;17.40;;;;;;;19.20;96.89;99069.73;131171;1254;108471;-76
2023/08/30 00:08:27;;;;;;;19.10;16.90;;;;;;;19.22;96.88;99070.14;131174;1264;108435;-76
2023/08/30 00:11:33;;;;;;;21.30;18.70;;;;;;;19.24;96.87;99072.51;131167;1253;108699;-75
2023/08/30 00:14:38;;;;;;;23.90;20.30;;;;;;;19.20;96.98;99073.48;131154;1250;107579;-75
2023/08/30 00:17:45;;;;;;;23.00;20.20;;;;;;;19.09;96.82;99072.55;131246;1253;107292;-75
2023/08/30 00:20:50;;;;;;;22.40;19.50;;;;;;;18.98;97.03;99074.34;131235;1253;108613;-76
2023/08/30 00:23:56;;;;;;;22.30;17.60;;;;;;;18.91;97.45;99073.48;131144;1248;107816;-75
2023/08/30 00:27:02;;;;;;;21.60;18.30;;;;;;;18.84;97.78;99071.31;131171;1253;106654;-76
2023/08/30 00:30:10;;;;;;;23.00;19.00;;;;;;;18.75;97.96;99069.58;131160;1253;107853;-75
2023/08/30 00:33:15;;;;;;;24.30;20.30;;;;;;;18.67;98.39;99065.02;131248;1253;107640;-75
2023/08/30 00:36:21;;;;;;;23.30;19.90;;;;;;;18.52;99.13;99063.16;131085;1253;107719;-75
2023/08/30 00:39:27;;;;;;;22.00;17.90;;;;;;;18.40;99.24;99055.21;131295;1253;107791;-75
2023/08/30 00:42:33;;;;;;;23.40;18.10;;;;;;;18.36;99.02;99057.91;131178;1252;108003;-76
2023/08/30 00:45:40;;;;;;;22.40;18.10;;;;;;;18.37;99.13;99063.46;131154;1253;108189;-75
2023/08/30 00:48:46;;;;;;;23.30;18.80;;;;;;;18.45;99.29;99065.58;131295;1248;107595;-75
2023/08/30 00:51:52;;;;;;;22.00;17.80;;;;;;;18.51;98.88;99070.43;131321;1253;106570;-76
2023/08/30 00:54:58;;;;;;;17.60;15.00;;;;;;;18.61;98.92;99072.61;131175;1255;108477;-75
2023/08/30 00:58:05;;;;;;;21.20;17.10;;;;;;;18.74;98.89;99071.23;131192;1250;107916;-75
2023/08/30 01:01:13;;;;;;;23.00;17.70;;;;;;;18.81;98.50;99071.73;131007;1253;203163;-76
2023/08/30 01:04:20;;;;;;;22.30;18.20;;;;;;;18.83;98.54;99071.50;131240;1253;107733;-75
2023/08/30 01:07:27;;;;;;;22.50;18.60;;;;;;;18.77;98.47;99073.21;131225;1261;106824;-78
2023/08/30 01:10:45;;;;;;;22.80;18.80;;;;;;;18.71;98.66;99066.89;131242;1253;107646;-76
2023/08/30 01:13:57;;;;;;;23.30;17.70;;;;;;;18.60;98.92;99057.39;131288;1247;108389;-76
2023/08/30 01:17:04;;;;;;;23.40;17.70;;;;;;;18.54;99.24;99044.69;131220;1253;108682;-76
2023/08/30 01:20:13;;;;;;;20.80;17.20;;;;;;;18.55;99.30;99027.51;131217;1263;107433;-76
2023/08/30 01:23:30;;;;;;;24.30;18.40;;;;;;;18.53;99.70;99024.23;131292;1253;107797;-77
2023/08/30 01:26:45;;;;;;;22.20;17.90;;;;;;;18.49;99.51;99025.70;131186;1249;108580;-76
2023/08/30 01:29:55;;;;;;;23.10;17.40;;;;;;;18.54;99.65;99026.98;131261;1253;107858;-76
2023/08/30 01:33:01;;;;;;;21.70;17.00;;;;;;;18.54;99.56;99026.83;131203;1263;107626;-76
2023/08/30 01:36:07;;;;;;;22.60;16.90;;;;;;;18.53;99.55;99027.20;131177;1253;105689;-75
2023/08/30 01:39:15;;;;;;;23.40;18.60;;;;;;;18.53;99.67;99023.63;131286;1252;106953;-75
2023/08/30 01:42:22;;;;;;;24.20;18.60;;;;;;;18.40;99.86;99016.70;131214;1253;107670;-75
2023/08/30 01:45:29;;;;;;;21.60;16.50;;;;;;;18.33;99.92;99015.08;131175;1253;108480;-76
2023/08/30 01:48:37;;;;;;;24.40;17.60;;;;;;;18.35;99.96;99009.40;131253;1253;106570;-75
2023/08/30 01:51:43;;;;;;;22.90;17.50;;;;;;;18.38;99.99;99016.54;131247;1263;107146;-75
2023/08/30 01:54:51;;;;;;;23.20;17.10;;;;;;;18.35;100.00;99016.67;131332;1250;107423;-77
2023/08/30 01:57:58;;;;;;;23.80;18.50;;;;;;;18.31;99.98;99014.50;131210;1253;107699;-75
2023/08/30 02:01:04;;;;;;;20.80;16.40;;;;;;;18.37;100.00;99017.21;131189;1263;108705;-75
2023/08/30 02:04:10;;;;;;;20.60;16.50;;;;;;;18.45;99.99;99020.85;131199;1252;107738;-75
2023/08/30 02:07:21;;;;;;;23.60;16.90;;;;;;;18.55;99.92;99020.27;131197;1254;108428;-75
2023/08/30 02:10:29;;;;;;;20.40;16.40;;;;;;;18.64;99.82;99017.66;131173;1252;106272;-75
2023/08/30 02:13:35;;;;;;;21.70;17.50;;;;;;;18.72;99.85;99033.14;131216;1252;107992;-76
2023/08/30 02:16:43;;;;;;;21.60;17.20;;;;;;;18.80;99.74;99035.59;131161;1253;108728;-76
2023/08/30 02:19:53;;;;;;;20.90;17.10;;;;;;;18.88;99.58;99028.31;131209;1250;107797;-76
2023/08/30 02:23:00;;;;;;;24.00;17.30;;;;;;;18.81;99.16;99022.10;131292;1252;108647;-76
2023/08/30 02:26:06;;;;;;;24.20;17.60;;;;;;;18.67;99.38;99013.69;131151;1247;106544;-75
2023/08/30 02:29:13;;;;;;;19.20;15.40;;;;;;;18.57;99.82;99015.45;131177;1259;106689;-77
2023/08/30 02:32:20;;;;;;;21.00;17.40;;;;;;;18.63;99.99;99014.02;131233;1253;106851;-77
2023/08/30 02:35:27;;;;;;;24.40;19.40;;;;;;;18.72;99.82;99005.13;131256;1254;106468;-76
2023/08/30 02:38:33;;;;;;;23.40;18.40;;;;;;;18.54;99.89;98991.61;131257;1264;108458;-75
2023/08/30 02:41:40;;;;;;;19.60;15.70;;;;;;;18.34;99.96;98995.41;131139;1253;107452;-75
2023/08/30 02:44:45;;;;;;;21.30;16.00;;;;;;;18.31;100.00;98998.66;131266;1261;108635;-76
2023/08/30 02:47:51;;;;;;;23.40;18.40;;;;;;;18.37;100.00;98996.20;131217;1253;108639;-75
2023/08/30 02:50:57;;;;;;;22.20;16.50;;;;;;;18.44;99.99;98999.32;131378;1254;108753;-78
2023/08/30 02:54:03;;;;;;;22.40;16.30;;;;;;;18.50;99.98;98996.39;131272;1261;106820;-75
2023/08/30 02:57:09;;;;;;;24.10;16.60;;;;;;;18.59;99.88;98986.65;131193;1253;105987;-76
2023/08/30 03:00:17;;;;;;;22.70;17.10;;;;;;;18.62;99.92;98982.29;131227;1254;106922;-76
2023/08/30 03:03:25;;;;;;;24.30;19.10;;;;;;;18.65;99.66;98976.77;131238;1253;106969;-75
2023/08/30 03:06:33;;;;;;;26.20;20.10;;;;;;;18.48;99.84;98971.39;131208;1254;108090;-78
2023/08/30 03:09:39;;;;;;;22.00;17.00;;;;;;;18.32;100.00;98965.13;131204;1262;107772;-76
2023/08/30 03:12:45;;;;;;;24.20;18.20;;;;;;;18.22;100.00;98972.10;131101;1261;107425;-76
2023/08/30 03:15:50;;;;;;;25.90;18.50;;;;;;;18.16;100.00;98973.42;131090;1253;107635;-75
2023/08/30 03:18:56;;;;;;;24.60;18.20;;;;;;;18.10;100.00;98969.50;131244;1253;108728;-75
2023/08/30 03:22:01;;;;;;;25.60;19.60;;;;;;;18.06;100.00;98966.86;131125;1254;107724;-75
2023/08/30 03:25:09;;;;;;;25.30;18.40;;;;;;;17.99;100.00;98972.86;131180;1264;108071;-75
2023/08/30 03:28:14;;;;;;;22.60;17.50;;;;;;;17.97;100.00;98972.86;131196;1254;107701;-75
2023/08/30 03:31:21;;;;;;;24.20;17.80;;;;;;;17.90;100.00;98966.17;131134;1261;107770;-76
2023/08/30 03:34:27;;;;;;;25.20;18.70;;;;;;;17.85;100.00;98957.77;131269;1253;107765;-75
2023/08/30 03:37:32;;;;;;;24.00;17.70;;;;;;;17.81;100.00;98954.79;131236;1254;107693;-75
2023/08/30 03:40:39;;;;;;;25.00;18.10;;;;;;;17.74;100.00;98944.89;131190;1261;108740;-75
2023/08/30 03:43:45;;;;;;;25.80;16.90;;;;;;;17.71;100.00;98945.41;131161;1252;108717;-76
2023/08/30 03:46:50;;;;;;;23.40;16.40;;;;;;;17.72;100.00;98955.70;131186;1248;107618;-76
2023/08/30 03:49:56;;;;;;;23.60;17.60;;;;;;;17.79;100.00;98963.28;131291;1253;107013;-75
2023/08/30 03:53:01;;;;;;;22.00;16.80;;;;;;;17.86;100.00;98975.88;131231;1253;108612;-77
2023/08/30 03:56:07;;;;;;;20.60;15.90;;;;;;;17.88;100.00;98985.27;131176;1248;106739;-75
2023/08/30 03:59:13;;;;;;;22.40;15.80;;;;;;;17.85;100.00;98983.52;131404;1253;106762;-77
2023/08/30 04:02:18;;;;;;;21.90;15.20;;;;;;;17.80;100.00;98988.55;131401;1262;107369;-76
2023/08/30 04:05:24;;;;;;;20.00;14.80;;;;;;;17.73;100.00;98990.09;131162;1254;106880;-76
2023/08/30 04:08:30;;;;;;;16.80;13.10;;;;;;;17.74;100.00;98993.84;131332;1249;106853;-75
2023/08/30 04:11:35;;;;;;;19.50;12.70;;;;;;;17.78;100.00;98991.02;131194;1263;106434;-76
2023/08/30 04:14:41;;;;;;;17.60;12.80;;;;;;;17.81;100.00;99002.77;131162;1253;106985;-75
2023/08/30 04:17:46;;;;;;;16.30;12.40;;;;;;;17.82;100.00;99003.13;131204;1253;108714;-76
2023/08/30 04:20:52;;;;;;;15.70;12.40;;;;;;;17.81;100.00;99004.06;131164;1254;107222;-75
2023/08/30 04:23:57;;;;;;;14.80;11.90;;;;;;;17.85;100.00;99002.41;131208;1257;106494;-76
2023/08/30 04:27:03;;;;;;;20.40;14.30;;;;;;;17.89;100.00;98996.63;131145;1256;107447;-75
2023/08/30 04:30:10;;;;;;;16.30;12.20;;;;;;;17.81;100.00;99001.15;131172;1248;106681;-76
2023/08/30 04:33:16;;;;;;;14.30;11.20;;;;;;;17.72;100.00;99003.83;131257;1260;107669;-75
2023/08/30 04:36:22;;;;;;;13.90;10.60;;;;;;;17.68;100.00;99003.55;131174;1263;106865;-75
2023/08/30 04:39:28;;;;;;;14.20;11.10;;;;;;;17.67;100.00;99009.25;131216;1253;107491;-76
2023/08/30 04:42:33;;;;;;;14.70;12.30;;;;;;;17.71;100.00;99011.30;131238;1253;108053;-80
2023/08/30 04:45:39;;;;;;;16.30;12.60;;;;;;;17.69;100.00;99011.25;131182;1254;107857;-72
2023/08/30 04:48:46;;;;;;;12.80;10.10;;;;;;;17.56;100.00;99020.73;131390;1253;108709;-75
2023/08/30 04:51:53;;;;;;;13.30;10.50;;;;;;;17.65;100.00;99027.84;131645;1258;107763;-75
2023/08/30 04:54:59;;;;;;;15.00;12.90;;;;;;;17.74;100.00;99033.23;131223;1254;108450;-75
2023/08/30 04:58:06;;;;;;;16.50;13.40;;;;;;;17.64;100.00;99031.57;131274;1253;108427;-74
2023/08/30 05:01:14;;;;;;;18.40;14.10;;;;;;;17.45;100.00;99025.02;131223;1253;107677;-74
2023/08/30 05:04:21;;;;;;;19.60;13.80;;;;;;;17.35;100.00;99021.02;131133;1254;106507;-74
2023/08/30 05:07:27;;;;;;;19.80;14.20;;;;;;;17.28;100.00;99023.96;131219;1253;106386;-73
2023/08/30 05:10:33;;;;;;;20.40;14.90;;;;;;;17.22;100.00;99025.45;131236;1252;106293;-74
2023/08/30 05:13:38;;;;;;;20.50;15.30;;;;;;;17.14;100.00;99022.11;131402;1262;108714;-73
2023/08/30 05:16:44;;;;;;;20.50;15.30;;;;;;;17.02;100.00;99021.17;131232;1251;108710;-73
2023/08/30 05:19:50;;;;;;;20.00;14.50;;;;;;;16.94;100.00;99020.08;131091;1248;108352;-72
2023/08/30 05:22:56;;;;;;;19.10;13.90;;;;;;;16.90;100.00;99017.42;131390;1254;107546;-78
2023/08/30 05:26:04;;;;;;;19.70;13.90;;;;;;;16.94;100.00;99019.11;131635;1253;107916;-80
2023/08/30 05:29:09;;;;;;;20.30;15.00;;;;;;;17.04;100.00;99014.02;131833;1248;106623;-80
2023/08/30 05:32:15;;;;;;;20.20;15.20;;;;;;;17.15;100.00;99013.19;131724;1248;106519;-81
2023/08/30 05:35:31;;;;;;;20.10;15.20;;;;;;;17.21;100.00;99010.39;131740;1253;107305;-80
2023/08/30 05:38:50;;;;;;;21.50;15.30;;;;;;;17.19;100.00;99010.39;131371;1254;107789;-81
2023/08/30 05:42:12;;;;;;;19.50;13.90;;;;;;;17.20;100.00;99017.25;131365;1263;106413;-81
2023/08/30 05:45:18;;;;;;;18.90;14.50;;;;;;;17.30;100.00;99022.49;131180;1254;107272;-82
2023/08/30 05:48:24;;;;;;;19.20;13.90;;;;;;;17.35;100.00;99023.30;131356;1254;107650;-83
2023/08/30 05:51:30;;;;;;;17.80;13.20;;;;;;;17.39;100.00;99022.45;131185;1253;107744;-83
2023/08/30 05:54:36;;;;;;;16.50;13.10;;;;;;;17.42;100.00;99029.14;131553;1248;108523;-82
2023/08/30 05:57:42;;;;;;;17.60;13.40;;;;;;;17.47;100.00;99035.30;131397;1248;106459;-80
2023/08/30 06:00:48;;;;;;;16.50;13.30;;;;;;;17.50;100.00;99039.00;131401;1254;107517;-83
2023/08/30 06:03:54;;;;;;;16.00;13.20;;;;;;;17.49;100.00;99047.77;131375;1254;107575;-82
2023/08/30 06:07:00;;;;;;;15.00;12.40;;;;;;;17.45;100.00;99046.16;131428;1254;107388;-80
2023/08/30 06:10:06;;;;;;;15.50;11.90;;;;;;;17.40;100.00;99051.14;131382;1254;107311;-80
2023/08/30 06:13:12;;;;;;;14.40;12.00;;;;;;;17.46;100.00;99049.16;131543;1248;107558;-80
2023/08/30 06:16:18;;;;;;;16.30;11.90;;;;;;;17.49;100.00;99046.96;131328;1254;107854;-79
2023/08/30 06:19:23;;;;;;;15.80;12.40;;;;;;;17.52;100.00;99047.85;131344;1252;107772;-79
2023/08/30 06:22:29;;;;;;;17.50;13.70;;;;;;;17.50;100.00;99048.45;131328;1254;107459;-76
2023/08/30 06:25:34;;;;;;;16.60;12.70;;;;;;;17.47;100.00;99047.41;131364;1254;106655;-85
2023/08/30 06:28:40;;;;;;;17.00;12.80;;;;;;;17.52;100.00;99049.37;131419;1253;109324;-83
2023/08/30 06:31:46;;;;;;;16.40;12.80;;;;;;;17.52;100.00;99051.52;131670;1254;107773;-81
2023/08/30 06:34:52;;;;;;;17.10;13.30;;;;;;;17.53;100.00;99048.24;131565;1264;107581;-86
2023/08/30 06:37:57;;;;;;;17.00;13.10;;;;;;;17.54;100.00;99049.77;131509;1254;107556;-81
2023/08/30 06:41:03;;;;;;;19.10;14.20;;;;;;;17.52;100.00;99048.51;131905;1263;107739;-83
2023/08/30 06:44:09;;;;;;;20.00;14.90;;;;;;;17.48;100.00;99050.17;131576;1248;108719;-84
2023/08/30 06:47:14;;;;;;;20.20;14.40;;;;;;;17.45;100.00;99057.86;131774;1251;108002;-82
2023/08/30 06:50:20;;;;;;;20.20;13.80;;;;;;;17.42;100.00;99057.94;131972;1260;108601;-82
2023/08/30 06:53:25;;;;;;;19.20;14.50;;;;;;;17.39;100.00;99062.00;131461;1248;108638;-82
2023/08/30 06:56:31;;;;;;;18.20;13.40;;;;;;;17.41;100.00;99063.84;131418;1253;106848;-81
2023/08/30 06:59:37;;;;;;;17.30;12.90;;;;;;;17.43;100.00;99068.11;131409;1253;107361;-82
2023/08/30 07:02:45;;;;;;;16.20;12.20;;;;;;;17.42;100.00;99072.33;131473;1248;106315;-82
2023/08/30 07:05:56;;;;;;;17.20;13.10;;;;;;;17.42;100.00;99071.27;131388;1253;108491;-83
2023/08/30 07:09:06;;;;;;;19.60;13.40;;;;;;;17.42;100.00;99070.88;131303;1253;107042;-83
2023/08/30 07:12:16;;;;;;;18.60;12.20;;;;;;;17.42;100.00;99068.45;131386;1248;107773;-83
2023/08/30 07:15:22;;;;;;;16.20;10.60;;;;;;;17.45;100.00;99073.57;131301;1254;107214;-82
2023/08/30 07:18:27;;;;;;;15.70;11.00;;;;;;;17.52;100.00;99076.35;131365;1253;106527;-82
2023/08/30 07:21:35;;;;;;;14.50;11.20;;;;;;;17.55;100.00;99077.30;131360;1253;108639;-82
2023/08/30 07:24:42;;;;;;;16.10;11.90;;;;;;;17.65;100.00;99078.79;131465;1253;107042;-82
2023/08/30 07:27:47;;;;;;;13.80;10.20;;;;;;;17.69;100.00;99082.35;131353;1248;106203;-82
2023/08/30 07:30:53;;;;;;;12.70;10.00;;;;;;;17.67;100.00;99081.70;131315;1248;107791;-83
2023/08/30 07:33:59;;;;;;;12.20;9.30;;;;;;;17.68;100.00;99080.00;131271;1254;106714;-81
2023/08/30 07:37:05;;;;;;;15.10;11.20;;;;;;;17.76;100.00;99084.38;131352;1254;107204;-81
2023/08/30 07:40:12;;;;;;;13.20;10.00;;;;;;;17.81;100.00;99086.67;131386;1253;106548;-81
2023/08/30 07:43:18;;;;;;;13.60;9.80;;;;;;;17.85;100.00;99089.13;131254;1253;108718;-81
2023/08/30 07:46:24;;;;;;;11.00;8.80;;;;;;;17.89;100.00;99085.14;131290;1253;108339;-81
2023/08/30 07:49:29;;;;;;;10.40;8.00;;;;;;;17.92;100.00;99082.10;131323;1262;106772;-81
2023/08/30 07:52:35;;;;;;;11.90;9.20;;;;;;;18.05;100.00;99079.55;131294;1254;108474;-81
2023/08/30 07:55:41;;;;;;;10.30;8.30;;;;;;;18.08;100.00;99077.32;131307;1252;107262;-80
2023/08/30 07:58:46;;;;;;;10.00;7.80;;;;;;;18.12;100.00;99076.65;131356;1261;107975;-81
2023/08/30 08:01:52;;;;;;;10.80;8.40;;;;;;;18.16;100.00;99075.35;131350;1263;106707;-81
2023/08/30 08:04:58;;;;;;;11.60;8.70;;;;;;;18.16;100.00;99073.23;131291;1257;108364;-81
2023/08/30 08:08:04;;;;;;;11.90;9.00;;;;;;;18.15;100.00;99069.05;131337;1254;108584;-81
2023/08/30 08:11:10;;;;;;;10.30;8.30;;;;;;;18.18;100.00;99071.41;131333;1261;107647;-81
2023/08/30 08:14:16;;;;;;;10.50;7.80;;;;;;;18.24;100.00;99073.18;131339;1254;107474;-81
2023/08/30 08:17:21;;;;;;;9.80;7.40;;;;;;;18.27;100.00;99068.54;131354;1253;107698;-81
2023/08/30 08:20:27;;;;;;;12.90;7.80;;;;;;;18.26;100.00;99068.63;131294;1251;107492;-81
2023/08/30 08:23:32;;;;;;;9.20;7.30;;;;;;;18.28;100.00;99071.88;131377;1254;108660;-81
2023/08/30 08:26:38;;;;;;;11.90;7.60;;;;;;;18.32;100.00;99070.98;131327;1253;106857;-81
2023/08/30 08:29:44;;;;;;;9.50;7.70;;;;;;;18.27;100.00;99071.30;131362;1251;106931;-81
2023/08/30 08:32:49;;;;;;;9.70;7.70;;;;;;;18.22;100.00;99065.83;131345;1254;107610;-81
2023/08/30 08:35:55;;;;;;;8.60;6.90;;;;;;;18.20;100.00;99066.08;131317;1254;107964;-81
2023/08/30 08:39:01;;;;;;;8.80;6.90;;;;;;;18.11;100.00;99069.56;131346;1263;106651;-81
2023/08/30 08:42:07;;;;;;;21.30;16.60;;;;;;;18.05;100.00;99076.48;131333;1254;107414;-81
2023/08/30 08:45:13;;;;;;;11.50;8.40;;;;;;;18.07;100.00;99077.14;131326;1257;108333;-82
2023/08/30 08:48:19;;;;;;;13.40;10.20;;;;;;;18.18;100.00;99077.61;131346;1253;107649;-82
2023/08/30 08:51:25;;;;;;;258.50;130.90;;;;;;;18.20;100.00;99080.80;131213;1248;107878;-82
2023/08/30 08:54:32;;;;;;;31.20;19.90;;;;;;;18.20;100.00;99083.06;131438;1254;106659;-82
2023/08/30 08:57:38;;;;;;;45.10;27.30;;;;;;;18.16;100.00;99089.34;131318;1248;106816;-81
2023/08/30 09:00:45;;;;;;;44.90;29.70;;;;;;;18.12;100.00;99094.85;131319;1248;106494;-81
2023/08/30 09:03:51;;;;;;;13.80;10.50;;;;;;;18.14;100.00;99096.69;131401;1252;107509;-82
2023/08/30 09:06:57;;;;;;;11.50;9.00;;;;;;;18.18;100.00;99100.95;131282;1261;108777;-82
2023/08/30 09:10:03;;;;;;;10.70;8.60;;;;;;;18.18;100.00;99093.30;131343;1248;106735;-81
2023/08/30 09:13:09;;;;;;;9.80;7.60;;;;;;;18.17;100.00;99089.27;131154;1263;107572;-82
2023/08/30 09:16:16;;;;;;;12.80;10.40;;;;;;;18.24;100.00;99075.92;131316;1248;105907;-82
2023/08/30 09:19:22;;;;;;;14.00;12.10;;;;;;;18.25;100.00;99079.95;131331;1253;106931;-82
2023/08/30 09:22:39;;;;;;;13.90;10.70;;;;;;;18.23;100.00;99083.75;131332;1252;108698;-82
2023/08/30 09:25:45;;;;;;;12.40;9.50;;;;;;;18.19;100.00;99082.98;131323;1253;107896;-81
2023/08/30 09:28:50;;;;;;;12.50;9.60;;;;;;;18.11;100.00;99086.61;131421;1251;108406;-81
2023/08/30 09:31:58;;;;;;;13.20;10.10;;;;;;;18.06;100.00;99081.20;131570;1257;106601;-81
2023/08/30 09:35:06;;;;;;;14.70;11.00;;;;;;;18.06;99.99;99084.05;131369;1249;106856;-81
2023/08/30 09:38:18;;;;;;;14.60;9.60;;;;;;;18.02;100.00;99092.30;131383;1253;107593;-81
2023/08/30 09:41:25;;;;;;;13.20;9.90;;;;;;;18.05;100.00;99097.48;131350;1254;106529;-81
2023/08/30 09:44:32;;;;;;;11.60;8.90;;;;;;;18.07;100.00;99102.48;131328;1251;106968;-81
2023/08/30 09:47:38;;;;;;;11.70;9.30;;;;;;;18.04;99.99;99103.69;131314;1251;106435;-81
2023/08/30 09:50:44;;;;;;;13.10;10.20;;;;;;;18.05;100.00;99103.91;131329;1253;107438;-81
2023/08/30 09:53:55;;;;;;;11.00;8.50;;;;;;;18.09;100.00;99104.82;131482;1248;106399;-81
2023/08/30 09:57:02;;;;;;;11.30;8.50;;;;;;;18.15;100.00;99101.58;131326;1248;106626;-82
2023/08/30 10:00:12;;;;;;;11.50;8.40;;;;;;;18.26;100.00;99100.50;131329;1254;107375;-81
2023/08/30 10:03:18;;;;;;;10.80;8.50;;;;;;;18.37;100.00;99097.59;131403;1250;107681;-81
2023/08/30 10:06:25;;;;;;;12.20;9.50;;;;;;;18.40;99.99;99093.82;131283;1247;107792;-83
2023/08/30 10:09:33;;;;;;;11.60;9.00;;;;;;;18.45;99.91;99089.42;131409;1253;108609;-82
2023/08/30 10:12:40;;;;;;;11.40;9.20;;;;;;;18.47;99.72;99085.77;131389;1253;107773;-81
2023/08/30 10:15:49;;;;;;;11.60;8.90;;;;;;;18.44;99.64;99086.20;131352;1253;108398;-81
2023/08/30 10:19:02;;;;;;;10.80;8.10;;;;;;;18.48;99.79;99088.92;131320;1261;107829;-81
2023/08/30 10:22:12;;;;;;;9.90;8.30;;;;;;;18.65;99.96;99087.39;131428;1248;106925;-83
2023/08/30 10:25:21;;;;;;;9.40;7.60;;;;;;;18.86;99.63;99086.49;131337;1253;107907;-81
2023/08/30 10:28:28;;;;;;;9.10;7.30;;;;;;;19.07;98.73;99083.41;131384;1252;106666;-81
2023/08/30 10:31:34;;;;;;;9.40;7.30;;;;;;;19.20;98.86;99084.16;131308;1253;107761;-81
2023/08/30 10:34:39;;;;;;;7.30;6.00;;;;;;;19.32;98.51;99087.01;131398;1253;108822;-81
2023/08/30 10:37:56;;;;;;;7.40;5.90;;;;;;;19.40;98.32;99087.21;131301;1252;106366;-82
2023/08/30 10:41:10;;;;;;;6.90;6.20;;;;;;;19.39;98.27;99089.65;131439;1253;107403;-82
2023/08/30 10:44:21;;;;;;;6.40;5.60;;;;;;;19.39;98.73;99088.40;131364;1251;106376;-82
2023/08/30 10:47:29;;;;;;;6.80;5.70;;;;;;;19.36;98.44;99087.25;131274;1254;109652;-81
2023/08/30 10:50:36;;;;;;;5.80;5.20;;;;;;;19.36;98.70;99087.20;131350;1264;107488;-81
2023/08/30 10:53:42;;;;;;;7.40;6.40;;;;;;;19.45;98.58;99092.29;131314;1253;107642;-82
2023/08/30 10:56:56;;;;;;;7.20;6.50;;;;;;;19.53;98.53;99090.82;131466;1248;107699;-82
2023/08/30 11:00:10;;;;;;;7.00;6.20;;;;;;;19.63;98.48;99092.27;131347;1253;107113;-82
2023/08/30 11:03:16;;;;;;;8.60;5.80;;;;;;;19.68;98.17;99093.23;131411;1253;106943;-82
2023/08/30 11:06:22;;;;;;;7.20;5.80;;;;;;;19.65;97.87;99098.09;131328;1247;107620;-81
2023/08/30 11:09:28;;;;;;;7.30;5.80;;;;;;;19.60;97.88;99099.45;131391;1247;108598;-81
2023/08/30 11:12:33;;;;;;;6.40;5.70;;;;;;;19.55;97.74;99104.89;131333;1247;107615;-81
2023/08/30 11:15:39;;;;;;;6.30;5.00;;;;;;;19.52;97.80;99108.90;131370;1253;107274;-81
2023/08/30 11:18:44;;;;;;;5.60;4.80;;;;;;;19.52;97.95;99110.07;131325;1253;108667;-83
2023/08/30 11:21:50;;;;;;;6.70;4.90;;;;;;;19.50;97.79;99115.94;131290;1252;107851;-81
2023/08/30 11:24:56;;;;;;;5.70;4.90;;;;;;;19.49;97.63;99115.25;131532;1252;107769;-83
2023/08/30 11:28:06;;;;;;;6.10;5.40;;;;;;;19.44;97.57;99120.52;131412;1248;106498;-82
2023/08/30 11:31:11;;;;;;;6.20;5.40;;;;;;;19.41;97.72;99119.10;131380;1250;108628;-83
2023/08/30 11:34:23;;;;;;;5.30;4.70;;;;;;;19.37;97.32;99119.02;131454;1253;106676;-83
2023/08/30 11:37:29;;;;;;;5.20;4.40;;;;;;;19.31;97.49;99124.14;131487;1251;106947;-83
2023/08/30 11:40:36;;;;;;;4.60;4.10;;;;;;;19.29;97.51;99125.73;131568;1253;108041;-82
2023/08/30 11:43:42;;;;;;;5.20;4.70;;;;;;;19.29;97.63;99120.97;131446;1253;109264;-83
2023/08/30 11:46:49;;;;;;;5.80;4.70;;;;;;;19.29;97.21;99112.52;131308;1247;107755;-82
2023/08/30 11:49:58;;;;;;;6.70;4.40;;;;;;;19.25;97.29;99120.66;131427;1254;107208;-83
2023/08/30 11:53:04;;;;;;;4.20;3.80;;;;;;;19.25;97.51;99116.98;131343;1253;108622;-80
2023/08/30 11:56:11;;;;;;;6.70;4.20;;;;;;;19.28;97.30;99115.75;131446;1254;107883;-80
2023/08/30 11:59:22;;;;;;;5.30;3.70;;;;;;;19.30;97.03;99108.15;131395;1253;107197;-80
2023/08/30 12:02:28;;;;;;;4.60;3.60;;;;;;;19.34;97.14;99108.47;131395;1248;106773;-81
2023/08/30 12:05:36;;;;;;;3.60;3.20;;;;;;;19.40;96.97;99107.29;131449;1250;108666;-81
2023/08/30 12:08:42;;;;;;;3.40;3.00;;;;;;;19.46;96.60;99107.08;131340;1251;106748;-80
2023/08/30 12:11:47;;;;;;;3.60;3.10;;;;;;;19.48;96.55;99105.08;131229;1253;108592;-80
2023/08/30 12:14:58;;;;;;;4.60;3.60;;;;;;;19.66;96.85;99105.20;131349;1247;106739;-80
2023/08/30 12:18:10;;;;;;;3.70;3.30;;;;;;;19.86;96.29;99100.58;131305;1261;107500;-81
2023/08/30 12:21:17;;;;;;;3.50;3.20;;;;;;;19.88;95.21;99099.38;131394;1248;106660;-81
2023/08/30 12:24:23;;;;;;;4.10;2.70;;;;;;;19.82;96.11;99096.13;131425;1253;107132;-82
2023/08/30 12:27:28;;;;;;;3.60;2.90;;;;;;;19.97;96.27;99096.02;131288;1250;107785;-82
2023/08/30 12:30:34;;;;;;;2.90;2.60;;;;;;;20.09;96.14;99099.53;131390;1252;107760;-83
2023/08/30 12:33:41;;;;;;;3.40;3.10;;;;;;;20.15;95.87;99098.92;131356;1253;108692;-82
2023/08/30 12:36:46;;;;;;;5.10;2.90;;;;;;;20.13;94.31;99096.14;131253;1253;107948;-82
2023/08/30 12:39:52;;;;;;;3.20;2.80;;;;;;;20.11;95.38;99096.91;131233;1247;108632;-81
2023/08/30 12:42:57;;;;;;;4.00;2.70;;;;;;;20.19;95.26;99099.67;131384;1249;107701;-82
2023/08/30 12:46:04;;;;;;;4.20;2.70;;;;;;;20.28;94.81;99093.91;131325;1248;107365;-79
2023/08/30 12:49:09;;;;;;;4.30;3.40;;;;;;;20.32;93.14;99098.95;131607;1249;107484;-79
2023/08/30 12:52:16;;;;;;;3.50;3.00;;;;;;;20.18;93.96;99096.45;131402;1250;108275;-79
2023/08/30 12:55:21;;;;;;;4.10;2.80;;;;;;;20.19;93.74;99090.30;131280;1251;108576;-82
2023/08/30 12:58:27;;;;;;;3.20;2.70;;;;;;;20.09;93.60;99086.04;131352;1252;108650;-81
2023/08/30 13:01:33;;;;;;;3.70;2.90;;;;;;;20.12;94.45;99087.47;131124;1250;233577;-83
2023/08/30 13:04:38;;;;;;;3.50;2.90;;;;;;;20.16;93.44;99089.59;131379;1248;107781;-82
2023/08/30 13:07:44;;;;;;;3.50;3.10;;;;;;;20.21;94.01;99088.39;131217;1249;108588;-81
2023/08/30 13:10:50;;;;;;;3.50;3.10;;;;;;;20.30;92.69;99087.23;131450;1253;107925;-81
2023/08/30 13:13:57;;;;;;;3.80;3.10;;;;;;;20.27;91.73;99085.77;131298;1252;108541;-81
2023/08/30 13:17:03;;;;;;;3.10;2.80;;;;;;;20.28;92.71;99085.73;131293;1251;107931;-81
2023/08/30 13:20:11;;;;;;;3.10;2.80;;;;;;;20.40;91.65;99081.38;131364;1253;108553;-82
2023/08/30 13:23:16;;;;;;;2.70;2.40;;;;;;;20.40;91.29;99082.84;131352;1254;108627;-82
2023/08/30 13:26:22;;;;;;;3.10;2.80;;;;;;;20.45;92.83;99082.39;131377;1253;106483;-82
2023/08/30 13:29:27;;;;;;;4.40;3.30;;;;;;;20.58;90.63;99078.72;131320;1252;106925;-82
2023/08/30 13:32:33;;;;;;;4.00;3.60;;;;;;;20.47;90.30;99078.66;131479;1250;106529;-82
2023/08/30 13:35:41;;;;;;;3.40;3.10;;;;;;;20.33;90.21;99079.53;131257;1261;108573;-82
2023/08/30 13:38:46;;;;;;;3.80;3.40;;;;;;;20.27;90.39;99073.20;131266;1253;107209;-83
2023/08/30 13:41:52;;;;;;;3.30;3.00;;;;;;;20.29;90.93;99071.17;131368;1250;108197;-82
2023/08/30 13:44:57;;;;;;;3.30;3.00;;;;;;;20.41;92.14;99072.98;131241;1252;107649;-82
2023/08/30 13:48:03;;;;;;;4.10;3.70;;;;;;;20.54;92.18;99070.48;131297;1253;107722;-82
2023/08/30 13:51:09;;;;;;;3.60;2.70;;;;;;;20.60;91.14;99066.89;131363;1250;108149;-83
2023/08/30 13:54:14;;;;;;;6.00;3.10;;;;;;;20.52;91.90;99061.40;131373;1248;105835;-83
2023/08/30 13:57:20;;;;;;;2.70;2.50;;;;;;;20.55;91.26;99065.66;131329;1253;107616;-83
2023/08/30 14:00:28;;;;;;;2.80;2.60;;;;;;;20.54;91.20;99060.46;131468;1251;106626;-83